sensor_id;sensor_type;location;lat;lon;timestamp;pressure;altitude;pressure_sealevel;temperature;humidity
10474;BME280;5284;50.446;7.904;2023-08-30T00:01:25;97784.84;;;13.65;100.00
10474;BME280;5284;50.446;7.904;2023-08-30T00:06:29;97781.97;;;13.59;100.00
10474;BME280;5284;50.446;7.904;2023-08-30T00:11:33;97791.53;;;13.61;100.00
10474;BME280;5284;50.446;7.904;2023-08-30T00:16:36;97797.91;;;13.60;100.00
10474;BME280;5284;50.446;7.904;2023-08-30T00:21:43;97785.50;;;13.59;100.00
10474;BME280;5284;50.446;7.904;2023-08-30T00:26:46;97795.22;;;13.60;100.00
10474;BME280;5284;50.446;7.904;2023-08-30T00:31:50;97791.69;;;13.60;100.00
10474;BME280;5284;50.446;7.904;2023-08-30T00:36:54;97782.50;;;13.62;100.00
10474;BME280;5284;50.446;7.904;2023-08-30T00:41:59;97782.16;;;13.65;100.00
10474;BME280;5284;50.446;7.904;2023-08-30T00:47:06;97772.94;;;13.68;100.00
10474;BME280;5284;50.446;7.904;2023-08-30T00:52:12;97771.94;;;13.69;100.00
10474;BME280;5284;50.446;7.904;2023-08-30T00:57:16;97766.91;;;13.73;100.00
10474;BME280;5284;50.446;7.904;2023-08-30T01:02:19;97766.91;;;13.73;100.00
10474;BME280;5284;50.446;7.904;2023-08-30T01:07:24;97774.09;;;13.73;100.00
10474;BME280;5284;50.446;7.904;2023-08-30T01:12:33;97766.59;;;13.69;100.00
10474;BME280;5284;50.446;7.904;2023-08-30T01:17:41;97761.22;;;13.69;100.00
10474;BME280;5284;50.446;7.904;2023-08-30T01:22:57;97750.84;;;13.73;100.00
10474;BME280;5284;50.446;7.904;2023-08-30T01:28:04;97751.66;;;13.74;100.00
10474;BME280;5284;50.446;7.904;2023-08-30T01:33:10;97755.19;;;13.74;100.00
10474;BME280;5284;50.446;7.904;2023-08-30T01:38:14;97751.84;;;13.73;100.00
10474;BME280;5284;50.446;7.904;2023-08-30T01:43:20;97749.63;;;13.76;100.00
10474;BME280;5284;50.446;7.904;2023-08-30T01:48:24;97743.13;;;13.78;100.00
10474;BME280;5284;50.446;7.904;2023-08-30T01:53:29;97732.41;;;13.78;100.00
10474;BME280;5284;50.446;7.904;2023-08-30T01:58:34;97723.69;;;13.76;100.00
10474;BME280;5284;50.446;7.904;2023-08-30T02:03:39;97725.72;;;13.74;100.00
10474;BME280;5284;50.446;7.904;2023-08-30T02:08:50;97719.69;;;13.73;100.00
10474;BME280;5284;50.446;7.904;2023-08-30T02:13:59;97714.00;;;13.68;100.00
10474;BME280;5284;50.446;7.904;2023-08-30T02:19:03;97714.81;;;13.68;100.00
10474;BME280;5284;50.446;7.904;2023-08-30T02:24:08;97719.50;;;13.66;100.00
10474;BME280;5284;50.446;7.904;2023-08-30T02:29:13;97729.22;;;13.67;100.00
10474;BME280;5284;50.446;7.904;2023-08-30T02:34:17;97723.88;;;13.67;100.00
10474;BME280;5284;50.446;7.904;2023-08-30T02:39:20;97721.38;;;13.66;100.00
10474;BME280;5284;50.446;7.904;2023-08-30T02:44:24;97725.88;;;13.65;100.00
10474;BME280;5284;50.446;7.904;2023-08-30T02:49:28;97725.22;;;13.63;100.00
10474;BME280;5284;50.446;7.904;2023-08-30T02:54:30;97727.38;;;13.60;100.00
10474;BME280;5284;50.446;7.904;2023-08-30T02:59:35;97732.59;;;13.53;100.00
10474;BME280;5284;50.446;7.904;2023-08-30T03:04:40;97722.03;;;13.52;100.00
10474;BME280;5284;50.446;7.904;2023-08-30T03:09:44;97709.31;;;13.46;100.00
10474;BME280;5284;50.446;7.904;2023-08-30T03:14:50;97715.38;;;13.40;100.00
10474;BME280;5284;50.446;7.904;2023-08-30T03:19:53;97713.34;;;13.26;100.00
10474;BME280;5284;50.446;7.904;2023-08-30T03:24:56;97709.00;;;13.17;100.00
10474;BME280;5284;50.446;7.904;2023-08-30T03:30:00;97716.34;;;13.07;100.00
10474;BME280;5284;50.446;7.904;2023-08-30T03:35:07;97704.63;;;13.00;100.00
10474;BME280;5284;50.446;7.904;2023-08-30T03:40:10;97701.22;;;12.90;100.00
10474;BME280;5284;50.446;7.904;2023-08-30T03:45:16;97696.06;;;12.80;100.00
10474;BME280;5284;50.446;7.904;2023-08-30T03:50:19;97703.91;;;12.74;100.00
10474;BME280;5284;50.446;7.904;2023-08-30T03:55:22;97700.34;;;12.65;100.00
10474;BME280;5284;50.446;7.904;2023-08-30T04:00:26;97696.16;;;12.55;100.00
10474;BME280;5284;50.446;7.904;2023-08-30T04:05:32;97708.34;;;12.49;100.00
10474;BME280;5284;50.446;7.904;2023-08-30T04:10:37;97711.50;;;12.45;100.00
10474;BME280;5284;50.446;7.904;2023-08-30T04:15:42;97713.66;;;12.41;100.00
10474;BME280;5284;50.446;7.904;2023-08-30T04:20:46;97712.16;;;12.39;100.00
10474;BME280;5284;50.446;7.904;2023-08-30T04:25:50;97700.59;;;12.38;100.00
10474;BME280;5284;50.446;7.904;2023-08-30T04:30:55;97695.25;;;12.30;100.00
10474;BME280;5284;50.446;7.904;2023-08-30T04:35:58;97687.72;;;12.26;100.00
10474;BME280;5284;50.446;7.904;2023-08-30T04:41:02;97685.66;;;12.20;100.00
10474;BME280;5284;50.446;7.904;2023-08-30T04:46:09;97700.34;;;12.16;100.00
10474;BME280;5284;50.446;7.904;2023-08-30T04:51:12;97699.34;;;12.17;100.00
10474;BME280;5284;50.446;7.904;2023-08-30T04:56:16;97701.53;;;12.14;100.00
10474;BME280;5284;50.446;7.904;2023-08-30T05:01:23;97695.34;;;12.13;100.00
10474;BME280;5284;50.446;7.904;2023-08-30T05:06:29;97687.97;;;12.07;100.00
10474;BME280;5284;50.446;7.904;2023-08-30T05:11:32;97684.28;;;12.08;100.00
10474;BME280;5284;50.446;7.904;2023-08-30T05:16:37;97681.75;;;12.07;100.00
10474;BME280;5284;50.446;7.904;2023-08-30T05:21:41;97686.13;;;12.08;100.00
10474;BME280;5284;50.446;7.904;2023-08-30T05:26:44;97692.84;;;12.12;100.00
10474;BME280;5284;50.446;7.904;2023-08-30T05:31:52;97686.16;;;12.16;100.00
10474;BME280;5284;50.446;7.904;2023-08-30T05:37:05;97679.97;;;12.15;100.00
10474;BME280;5284;50.446;7.904;2023-08-30T05:42:26;97680.69;;;12.25;100.00
10474;BME280;5284;50.446;7.904;2023-08-30T05:47:32;97681.75;;;12.40;100.00
10474;BME280;5284;50.446;7.904;2023-08-30T05:52:35;97684.97;;;12.51;100.00
10474;BME280;5284;50.446;7.904;2023-08-30T05:57:43;97693.00;;;12.59;100.00
10474;BME280;5284;50.446;7.904;2023-08-30T06:02:48;97680.28;;;12.61;100.00
10474;BME280;5284;50.446;7.904;2023-08-30T06:07:53;97682.00;;;12.78;100.00
10474;BME280;5284;50.446;7.904;2023-08-30T06:12:56;97685.72;;;12.93;100.00
10474;BME280;5284;50.446;7.904;2023-08-30T06:18:00;97677.69;;;13.09;100.00
10474;BME280;5284;50.446;7.904;2023-08-30T06:23:03;97671.34;;;13.26;100.00
10474;BME280;5284;50.446;7.904;2023-08-30T06:28:06;97676.00;;;13.40;100.00
10474;BME280;5284;50.446;7.904;2023-08-30T06:33:11;97686.19;;;13.61;100.00
10474;BME280;5284;50.446;7.904;2023-08-30T06:38:15;97674.63;;;13.68;100.00
10474;BME280;5284;50.446;7.904;2023-08-30T06:43:18;97675.44;;;13.84;100.00
10474;BME280;5284;50.446;7.904;2023-08-30T06:48:22;97678.38;;;14.05;100.00
10474;BME280;5284;50.446;7.904;2023-08-30T06:53:26;97664.63;;;14.08;100.00
10474;BME280;5284;50.446;7.904;2023-08-30T06:58:30;97656.25;;;14.11;100.00
10474;BME280;5284;50.446;7.904;2023-08-30T07:03:35;97657.34;;;14.33;100.00
10474;BME280;5284;50.446;7.904;2023-08-30T07:08:38;97657.00;;;14.36;100.00
10474;BME280;5284;50.446;7.904;2023-08-30T07:13:41;97661.38;;;14.59;100.00
10474;BME280;5284;50.446;7.904;2023-08-30T07:18:48;97651.88;;;14.79;100.00
10474;BME280;5284;50.446;7.904;2023-08-30T07:23:54;97655.81;;;14.91;100.00
10474;BME280;5284;50.446;7.904;2023-08-30T07:28:56;97649.19;;;15.02;100.00
10474;BME280;5284;50.446;7.904;2023-08-30T07:34:01;97656.16;;;15.11;100.00
10474;BME280;5284;50.446;7.904;2023-08-30T07:39:05;97655.47;;;15.17;100.00
10474;BME280;5284;50.446;7.904;2023-08-30T07:44:08;97654.69;;;15.31;100.00
10474;BME280;5284;50.446;7.904;2023-08-30T07:49:12;97650.50;;;15.28;100.00
10474;BME280;5284;50.446;7.904;2023-08-30T07:54:15;97649.44;;;15.37;100.00
10474;BME280;5284;50.446;7.904;2023-08-30T07:59:19;97646.47;;;15.61;100.00
10474;BME280;5284;50.446;7.904;2023-08-30T08:04:23;97647.81;;;16.23;100.00
10474;BME280;5284;50.446;7.904;2023-08-30T08:09:26;97639.22;;;16.63;100.00
10474;BME280;5284;50.446;7.904;2023-08-30T08:14:31;97632.00;;;16.84;100.00
10474;BME280;5284;50.446;7.904;2023-08-30T08:19:37;97634.44;;;16.44;100.00
10474;BME280;5284;50.446;7.904;2023-08-30T08:24:41;97637.16;;;16.65;100.00
10474;BME280;5284;50.446;7.904;2023-08-30T08:29:45;97635.19;;;17.15;100.00
10474;BME280;5284;50.446;7.904;2023-08-30T08:34:49;97625.56;;;17.48;100.00
10474;BME280;5284;50.446;7.904;2023-08-30T08:39:53;97628.66;;;17.24;100.00
10474;BME280;5284;50.446;7.904;2023-08-30T08:44:56;97623.16;;;18.21;100.00
10474;BME280;5284;50.446;7.904;2023-08-30T08:50:04;97627.03;;;18.12;100.00
10474;BME280;5284;50.446;7.904;2023-08-30T08:55:07;97632.13;;;18.81;100.00
10474;BME280;5284;50.446;7.904;2023-08-30T09:00:13;97626.75;;;18.94;100.00
10474;BME280;5284;50.446;7.904;2023-08-30T09:05:20;97634.50;;;19.10;100.00
10474;BME280;5284;50.446;7.904;2023-08-30T09:10:23;97620.19;;;19.35;100.00
10474;BME280;5284;50.446;7.904;2023-08-30T09:15:30;97623.50;;;19.31;100.00
10474;BME280;5284;50.446;7.904;2023-08-30T09:20:35;97614.56;;;19.76;95.34
10474;BME280;5284;50.446;7.904;2023-08-30T09:25:38;97619.72;;;19.90;90.30
10474;BME280;5284;50.446;7.904;2023-08-30T09:30:49;97621.53;;;20.28;86.88
10474;BME280;5284;50.446;7.904;2023-08-30T09:35:53;97616.59;;;20.13;86.73
10474;BME280;5284;50.446;7.904;2023-08-30T09:41:03;97615.50;;;20.26;86.15
10474;BME280;5284;50.446;7.904;2023-08-30T09:46:06;97601.66;;;19.45;88.62
10474;BME280;5284;50.446;7.904;2023-08-30T09:51:12;97606.22;;;20.03;85.39
10474;BME280;5284;50.446;7.904;2023-08-30T09:56:17;97596.53;;;20.83;81.75
10474;BME280;5284;50.446;7.904;2023-08-30T10:01:20;97594.53;;;20.59;78.71
10474;BME280;5284;50.446;7.904;2023-08-30T10:06:25;97588.75;;;19.67;82.71
10474;BME280;5284;50.446;7.904;2023-08-30T10:11:29;97580.88;;;19.26;85.86
10474;BME280;5284;50.446;7.904;2023-08-30T10:16:40;97578.59;;;19.43;88.20
10474;BME280;5284;50.446;7.904;2023-08-30T10:21:47;97579.72;;;19.99;84.92
10474;BME280;5284;50.446;7.904;2023-08-30T10:26:51;97566.63;;;20.59;81.76
10474;BME280;5284;50.446;7.904;2023-08-30T10:32:01;97563.16;;;21.14;76.22
10474;BME280;5284;50.446;7.904;2023-08-30T10:37:10;97558.72;;;21.44;72.46
10474;BME280;5284;50.446;7.904;2023-08-30T10:42:16;97557.53;;;21.58;68.88
10474;BME280;5284;50.446;7.904;2023-08-30T10:47:20;97553.47;;;22.63;72.05
10474;BME280;5284;50.446;7.904;2023-08-30T10:52:25;97557.78;;;22.34;67.88
10474;BME280;5284;50.446;7.904;2023-08-30T10:57:31;97552.22;;;22.29;64.57
10474;BME280;5284;50.446;7.904;2023-08-30T11:02:35;97547.72;;;22.35;67.64
10474;BME280;5284;50.446;7.904;2023-08-30T11:07:41;97550.31;;;22.30;64.12
10474;BME280;5284;50.446;7.904;2023-08-30T11:12:44;97543.91;;;22.72;62.28
10474;BME280;5284;50.446;7.904;2023-08-30T11:17:49;97534.84;;;21.76;60.91
10474;BME280;5284;50.446;7.904;2023-08-30T11:22:55;97534.81;;;22.66;59.82
10474;BME280;5284;50.446;7.904;2023-08-30T11:28:02;97524.22;;;23.17;57.75
10474;BME280;5284;50.446;7.904;2023-08-30T11:33:05;97533.84;;;23.02;58.50
10474;BME280;5284;50.446;7.904;2023-08-30T11:38:10;97530.91;;;22.74;58.62
10474;BME280;5284;50.446;7.904;2023-08-30T11:43:15;97528.09;;;22.33;58.34
10474;BME280;5284;50.446;7.904;2023-08-30T11:48:19;97522.47;;;21.80;59.25
10474;BME280;5284;50.446;7.904;2023-08-30T11:53:23;97532.44;;;21.44;64.32
10474;BME280;5284;50.446;7.904;2023-08-30T11:58:27;97526.81;;;20.90;68.77
10474;BME280;5284;50.446;7.904;2023-08-30T12:03:31;97535.41;;;20.81;67.76
10474;BME280;5284;50.446;7.904;2023-08-30T12:08:36;97529.84;;;20.69;70.34
10474;BME280;5284;50.446;7.904;2023-08-30T12:13:39;97528.38;;;20.36;72.96
10474;BME280;5284;50.446;7.904;2023-08-30T12:18:42;97520.63;;;20.77;72.59
10474;BME280;5284;50.446;7.904;2023-08-30T12:23:48;97517.88;;;20.52;71.17
10474;BME280;5284;50.446;7.904;2023-08-30T12:28:51;97518.06;;;20.51;73.72
10474;BME280;5284;50.446;7.904;2023-08-30T12:33:56;97505.81;;;19.98;76.64
10474;BME280;5284;50.446;7.904;2023-08-30T12:39:01;97508.13;;;19.95;72.00
10474;BME280;5284;50.446;7.904;2023-08-30T12:44:07;97504.63;;;20.69;71.91
10474;BME280;5284;50.446;7.904;2023-08-30T12:49:10;97508.91;;;21.80;68.52
10474;BME280;5284;50.446;7.904;2023-08-30T12:54:15;97492.41;;;21.82;66.93
10474;BME280;5284;50.446;7.904;2023-08-30T12:59:17;97488.75;;;21.03;68.16
10474;BME280;5284;50.446;7.904;2023-08-30T13:04:21;97497.84;;;21.15;70.88
10474;BME280;5284;50.446;7.904;2023-08-30T13:09:25;97491.53;;;21.21;70.30
10474;BME280;5284;50.446;7.904;2023-08-30T13:14:29;97482.09;;;22.20;72.85
10474;BME280;5284;50.446;7.904;2023-08-30T13:19:32;97468.16;;;22.75;68.10
10474;BME280;5284;50.446;7.904;2023-08-30T13:24:39;97479.19;;;22.92;69.65
10474;BME280;5284;50.446;7.904;2023-08-30T13:29:42;97478.00;;;22.29;68.29
10474;BME280;5284;50.446;7.904;2023-08-30T13:34:46;97463.78;;;22.45;66.90
10474;BME280;5284;50.446;7.904;2023-08-30T13:39:52;97478.81;;;21.64;69.85
10474;BME280;5284;50.446;7.904;2023-08-30T13:44:55;97473.22;;;22.13;69.30
10474;BME280;5284;50.446;7.904;2023-08-30T13:49:57;97464.34;;;22.17;68.47
10474;BME280;5284;50.446;7.904;2023-08-30T13:55:04;97466.94;;;22.12;67.22
10474;BME280;5284;50.446;7.904;2023-08-30T14:00:10;97462.31;;;22.60;66.12
10474;BME280;5284;50.446;7.904;2023-08-30T14:05:15;97463.47;;;21.87;66.55
10474;BME280;5284;50.446;7.904;2023-08-30T14:10:20;97453.63;;;22.22;66.71
10474;BME280;5284;50.446;7.904;2023-08-30T14:15:22;97449.84;;;21.94;68.25
10474;BME280;5284;50.446;7.904;2023-08-30T14:20:25;97448.44;;;21.31;67.33
10474;BME280;5284;50.446;7.904;2023-08-30T14:25:30;97455.25;;;20.67;69.65
10474;BME280;5284;50.446;7.904;2023-08-30T14:30:33;97451.97;;;20.21;74.35
10474;BME280;5284;50.446;7.904;2023-08-30T14:35:41;97448.06;;;20.17;75.79
10474;BME280;5284;50.446;7.904;2023-08-30T14:40:54;97438.22;;;19.79;77.96
10474;BME280;5284;50.446;7.904;2023-08-30T14:45:59;97441.47;;;19.94;77.18
10474;BME280;5284;50.446;7.904;2023-08-30T14:51:11;97441.22;;;19.64;82.32
10474;BME280;5284;50.446;7.904;2023-08-30T14:56:16;97447.72;;;19.44;88.66
10474;BME280;5284;50.446;7.904;2023-08-30T15:01:19;97452.97;;;19.19;90.74
10474;BME280;5284;50.446;7.904;2023-08-30T15:06:23;97476.22;;;18.62;99.03
10474;BME280;5284;50.446;7.904;2023-08-30T15:11:28;97490.66;;;18.09;100.00
10474;BME280;5284;50.446;7.904;2023-08-30T15:16:31;97497.59;;;17.84;100.00
10474;BME280;5284;50.446;7.904;2023-08-30T15:21:36;97496.44;;;17.59;100.00
10474;BME280;5284;50.446;7.904;2023-08-30T15:26:40;97507.78;;;17.21;100.00
10474;BME280;5284;50.446;7.904;2023-08-30T15:31:44;97508.69;;;17.07;100.00
10474;BME280;5284;50.446;7.904;2023-08-30T15:36:52;97522.03;;;16.67;100.00
10474;BME280;5284;50.446;7.904;2023-08-30T15:41:57;97526.50;;;16.60;100.00
10474;BME280;5284;50.446;7.904;2023-08-30T15:47:02;97526.75;;;16.08;100.00
10474;BME280;5284;50.446;7.904;2023-08-30T15:52:05;97518.66;;;15.87;100.00
10474;BME280;5284;50.446;7.904;2023-08-30T15:57:09;97504.59;;;15.71;100.00
10474;BME280;5284;50.446;7.904;2023-08-30T16:02:13;97504.34;;;15.37;100.00
10474;BME280;5284;50.446;7.904;2023-08-30T16:07:17;97505.97;;;15.24;100.00
10474;BME280;5284;50.446;7.904;2023-08-30T16:12:21;97514.81;;;15.32;100.00
10474;BME280;5284;50.446;7.904;2023-08-30T16:17:25;97517.53;;;15.24;100.00
10474;BME280;5284;50.446;7.904;2023-08-30T16:22:28;97538.81;;;15.11;100.00
10474;BME280;5284;50.446;7.904;2023-08-30T16:27:35;97527.94;;;14.90;100.00
10474;BME280;5284;50.446;7.904;2023-08-30T16:32:39;97532.91;;;14.64;100.00
10474;BME280;5284;50.446;7.904;2023-08-30T16:37:44;97548.16;;;14.41;100.00
10474;BME280;5284;50.446;7.904;2023-08-30T16:42:48;97558.16;;;14.25;100.00
10474;BME280;5284;50.446;7.904;2023-08-30T16:47:54;97561.06;;;14.15;100.00
10474;BME280;5284;50.446;7.904;2023-08-30T16:53:08;97546.34;;;14.03;100.00
10474;BME280;5284;50.446;7.904;2023-08-30T16:58:12;97525.88;;;14.10;100.00
10474;BME280;5284;50.446;7.904;2023-08-30T17:03:15;97543.53;;;13.97;100.00
10474;BME280;5284;50.446;7.904;2023-08-30T17:08:19;97536.84;;;13.93;100.00
10474;BME280;5284;50.446;7.904;2023-08-30T17:13:26;97541.19;;;13.94;100.00
10474;BME280;5284;50.446;7.904;2023-08-30T17:18:32;97540.69;;;13.98;100.00
10474;BME280;5284;50.446;7.904;2023-08-30T17:23:35;97540.34;;;14.01;100.00
10474;BME280;5284;50.446;7.904;2023-08-30T17:28:39;97544.38;;;13.97;100.00
10474;BME280;5284;50.446;7.904;2023-08-30T17:33:42;97549.75;;;13.97;100.00
10474;BME280;5284;50.446;7.904;2023-08-30T17:38:46;97543.66;;;14.03;100.00
10474;BME280;5284;50.446;7.904;2023-08-30T17:43:52;97558.78;;;13.96;100.00
10474;BME280;5284;50.446;7.904;2023-08-30T17:48:56;97571.56;;;13.86;100.00
10474;BME280;5284;50.446;7.904;2023-08-30T17:53:59;97581.25;;;13.87;100.00
10474;BME280;5284;50.446;7.904;2023-08-30T17:59:04;97590.66;;;13.83;100.00
10474;BME280;5284;50.446;7.904;2023-08-30T18:04:07;97607.78;;;13.74;100.00
10474;BME280;5284;50.446;7.904;2023-08-30T18:09:10;97601.47;;;13.68;100.00
10474;BME280;5284;50.446;7.904;2023-08-30T18:14:18;97598.13;;;13.66;100.00
10474;BME280;5284;50.446;7.904;2023-08-30T18:19:21;97599.13;;;13.57;100.00
10474;BME280;5284;50.446;7.904;2023-08-30T18:24:24;97602.28;;;13.68;100.00
10474;BME280;5284;50.446;7.904;2023-08-30T18:29:29;97604.31;;;13.66;100.00
10474;BME280;5284;50.446;7.904;2023-08-30T18:34:33;97620.22;;;13.60;100.00
10474;BME280;5284;50.446;7.904;2023-08-30T18:39:37;97626.78;;;13.57;100.00
10474;BME280;5284;50.446;7.904;2023-08-30T18:44:42;97632.31;;;13.48;100.00
10474;BME280;5284;50.446;7.904;2023-08-30T18:49:47;97623.59;;;13.46;100.00
10474;BME280;5284;50.446;7.904;2023-08-30T18:54:50;97613.06;;;13.36;100.00
10474;BME280;5284;50.446;7.904;2023-08-30T18:59:55;97636.69;;;13.33;100.00
10474;BME280;5284;50.446;7.904;2023-08-30T19:05:00;97635.00;;;13.24;100.00
10474;BME280;5284;50.446;7.904;2023-08-30T19:10:05;97628.84;;;13.15;100.00
10474;BME280;5284;50.446;7.904;2023-08-30T19:15:11;97627.84;;;13.16;100.00
10474;BME280;5284;50.446;7.904;2023-08-30T19:20:16;97636.88;;;13.15;100.00
10474;BME280;5284;50.446;7.904;2023-08-30T19:46:09;97650.75;;;13.11;100.00
10474;BME280;5284;50.446;7.904;2023-08-30T19:58:15;97662.13;;;13.21;100.00
10474;BME280;5284;50.446;7.904;2023-08-30T20:10:06;97665.00;;;13.19;100.00
10474;BME280;5284;50.446;7.904;2023-08-30T20:15:10;97663.47;;;13.17;100.00
10474;BME280;5284;50.446;7.904;2023-08-30T20:20:13;97671.50;;;13.09;100.00
10474;BME280;5284;50.446;7.904;2023-08-30T20:25:17;97666.31;;;13.07;100.00
10474;BME280;5284;50.446;7.904;2023-08-30T20:30:21;97671.19;;;13.04;100.00
10474;BME280;5284;50.446;7.904;2023-08-30T20:35:24;97675.88;;;13.02;100.00
10474;BME280;5284;50.446;7.904;2023-08-30T20:40:29;97683.03;;;13.01;100.00
10474;BME280;5284;50.446;7.904;2023-08-30T20:45:32;97692.41;;;12.97;100.00
10474;BME280;5284;50.446;7.904;2023-08-30T20:50:35;97699.63;;;13.05;100.00
10474;BME280;5284;50.446;7.904;2023-08-30T20:55:43;97699.97;;;13.02;100.00
10474;BME280;5284;50.446;7.904;2023-08-30T21:00:53;97709.81;;;13.01;100.00
10474;BME280;5284;50.446;7.904;2023-08-30T21:05:56;97713.34;;;12.94;100.00
10474;BME280;5284;50.446;7.904;2023-08-30T21:11:01;97716.63;;;12.88;100.00
10474;BME280;5284;50.446;7.904;2023-08-30T21:16:04;97731.19;;;12.85;100.00
10474;BME280;5284;50.446;7.904;2023-08-30T21:21:08;97732.19;;;12.84;100.00
10474;BME280;5284;50.446;7.904;2023-08-30T21:26:13;97726.66;;;12.86;100.00
10474;BME280;5284;50.446;7.904;2023-08-30T21:31:17;97734.34;;;12.81;100.00
10474;BME280;5284;50.446;7.904;2023-08-30T21:36:21;97737.34;;;12.86;100.00
10474;BME280;5284;50.446;7.904;2023-08-30T21:41:27;97744.03;;;12.82;100.00
10474;BME280;5284;50.446;7.904;2023-08-30T21:46:31;97738.00;;;12.80;100.00
10474;BME280;5284;50.446;7.904;2023-08-30T21:51:34;97741.03;;;12.77;100.00
10474;BME280;5284;50.446;7.904;2023-08-30T21:56:41;97730.31;;;12.77;100.00
10474;BME280;5284;50.446;7.904;2023-08-30T22:01:44;97734.34;;;12.81;100.00
10474;BME280;5284;50.446;7.904;2023-08-30T22:06:47;97739.69;;;12.81;100.00
10474;BME280;5284;50.446;7.904;2023-08-30T22:11:53;97730.00;;;12.80;100.00
10474;BME280;5284;50.446;7.904;2023-08-30T22:16:56;97746.03;;;12.72;100.00
10474;BME280;5284;50.446;7.904;2023-08-30T22:22:00;97745.19;;;12.71;100.00
10474;BME280;5284;50.446;7.904;2023-08-30T22:27:06;97738.00;;;12.64;100.00
10474;BME280;5284;50.446;7.904;2023-08-30T22:32:09;97738.78;;;12.56;100.00
10474;BME280;5284;50.446;7.904;2023-08-30T22:37:12;97741.78;;;12.53;100.00
10474;BME280;5284;50.446;7.904;2023-08-30T22:42:16;97731.91;;;12.46;100.00
10474;BME280;5284;50.446;7.904;2023-08-30T22:47:20;97730.69;;;12.40;100.00
10474;BME280;5284;50.446;7.904;2023-08-30T22:52:23;97727.34;;;12.38;100.00
10474;BME280;5284;50.446;7.904;2023-08-30T22:57:29;97724.84;;;12.37;100.00
10474;BME280;5284;50.446;7.904;2023-08-30T23:02:32;97732.19;;;12.35;100.00
10474;BME280;5284;50.446;7.904;2023-08-30T23:07:37;97721.81;;;12.32;100.00
10474;BME280;5284;50.446;7.904;2023-08-30T23:12:42;97732.84;;;12.29;100.00
10474;BME280;5284;50.446;7.904;2023-08-30T23:17:45;97728.66;;;12.26;100.00
10474;BME280;5284;50.446;7.904;2023-08-30T23:22:49;97730.13;;;12.21;100.00
10474;BME280;5284;50.446;7.904;2023-08-30T23:27:54;97744.13;;;12.15;100.00
10474;BME280;5284;50.446;7.904;2023-08-30T23:33:00;97747.97;;;12.13;100.00
10474;BME280;5284;50.446;7.904;2023-08-30T23:38:03;97744.09;;;12.07;100.00
10474;BME280;5284;50.446;7.904;2023-08-30T23:43:08;97743.56;;;12.04;100.00
10474;BME280;5284;50.446;7.904;2023-08-30T23:48:11;97745.56;;;12.02;100.00
10474;BME280;5284;50.446;7.904;2023-08-30T23:53:15;97756.19;;;11.94;100.00
10474;BME280;5284;50.446;7.904;2023-08-30T23:58:20;97767.22;;;11.91;100.00
